Snoqualmie River: Sum of the 3 forks

back to: Snoqualmie river
Sum of the 3 forks Summary - Station Details: GARW1, SNQW1, TANW1, (NOAA Hydrograph: GARW1, SNQW1, TANW1)
Latest reading:
Sun08/09 07:15 am 415 cfs (-12/hr)
Past 24hr max:
Sat08/08 10:15 am 441 cfs
Forecasted crests: (published Sat 08/08/20 08:36 am)
Thu08/13 11:00 pm 296 cfs
Sun08/16 05:00 am 337 cfs
Mon08/17 05:00 am 853 cfs
Mon08/17 05:00 pm 860 cfs

Sum of the 3 forks Details

Latest Readings

Last 100 Readings:
Sun08/09 07:15 am 415 cfs
Sun08/09 07:00 am 418 cfs
Sun08/09 06:45 am 417 cfs
Sun08/09 06:30 am 424 cfs
Sun08/09 06:15 am 425 cfs
Sun08/09 06:00 am 423 cfs
Sun08/09 05:45 am 417 cfs
Sun08/09 05:30 am 420 cfs
Sun08/09 05:15 am 423 cfs
Sun08/09 05:00 am 416 cfs
Sun08/09 04:45 am 420 cfs
Sun08/09 04:30 am 415 cfs
Sun08/09 04:15 am 417 cfs
Sun08/09 04:00 am 418 cfs
Sun08/09 03:45 am 420 cfs
Sun08/09 03:30 am 426 cfs
Sun08/09 03:15 am 417 cfs
Sun08/09 03:00 am 421 cfs
Sun08/09 02:45 am 420 cfs
Sun08/09 02:30 am 420 cfs
Sun08/09 02:15 am 417 cfs
Sun08/09 02:00 am 424 cfs
Sun08/09 01:45 am 423 cfs
Sun08/09 01:30 am 412 cfs
Sun08/09 01:15 am 426 cfs
Sun08/09 01:00 am 412 cfs
Sun08/09 12:45 am 420 cfs
Sun08/09 12:30 am 420 cfs
Sun08/09 12:15 am 426 cfs
Sun08/09 12:00 am 423 cfs
Sat08/08 11:45 pm 423 cfs
Sat08/08 11:30 pm 420 cfs
Sat08/08 11:15 pm 420 cfs
Sat08/08 11:00 pm 423 cfs
Sat08/08 10:45 pm 425 cfs
Sat08/08 10:30 pm 423 cfs
Sat08/08 10:15 pm 426 cfs
Sat08/08 10:00 pm 423 cfs
Sat08/08 09:45 pm 426 cfs
Sat08/08 09:30 pm 428 cfs
Sat08/08 09:15 pm 420 cfs
Sat08/08 09:00 pm 425 cfs
Sat08/08 08:45 pm 428 cfs
Sat08/08 08:30 pm 428 cfs
Sat08/08 08:15 pm 425 cfs
Sat08/08 08:00 pm 426 cfs
Sat08/08 07:45 pm 428 cfs
Sat08/08 07:30 pm 420 cfs
Sat08/08 07:15 pm 428 cfs
Sat08/08 07:00 pm 431 cfs
Sat08/08 06:45 pm 423 cfs
Sat08/08 06:30 pm 421 cfs
Sat08/08 06:15 pm 424 cfs
Sat08/08 06:00 pm 429 cfs
Sat08/08 05:45 pm 427 cfs
Sat08/08 05:30 pm 432 cfs
Sat08/08 05:15 pm 428 cfs
Sat08/08 05:00 pm 429 cfs
Sat08/08 04:45 pm 425 cfs
Sat08/08 04:30 pm 427 cfs
Sat08/08 04:15 pm 429 cfs
Sat08/08 04:00 pm 432 cfs
Sat08/08 03:45 pm 426 cfs
Sat08/08 03:30 pm 426 cfs
Sat08/08 03:15 pm 430 cfs
Sat08/08 03:00 pm 424 cfs
Sat08/08 02:45 pm 430 cfs
Sat08/08 02:30 pm 428 cfs
Sat08/08 02:15 pm 436 cfs
Sat08/08 02:00 pm 436 cfs
Sat08/08 01:45 pm 430 cfs
Sat08/08 01:30 pm 433 cfs
Sat08/08 01:15 pm 433 cfs
Sat08/08 01:00 pm 436 cfs
Sat08/08 12:45 pm 428 cfs
Sat08/08 12:30 pm 436 cfs
Sat08/08 12:15 pm 430 cfs
Sat08/08 12:00 pm 439 cfs
Sat08/08 11:45 am 439 cfs
Sat08/08 11:30 am 430 cfs
Sat08/08 11:15 am 430 cfs
Sat08/08 11:00 am 433 cfs
Sat08/08 10:45 am 430 cfs
Sat08/08 10:30 am 436 cfs
Sat08/08 10:15 am 441 cfs
Sat08/08 10:00 am 434 cfs
Sat08/08 09:45 am 438 cfs
Sat08/08 09:30 am 437 cfs
Sat08/08 09:15 am 434 cfs
Sat08/08 09:00 am 433 cfs
Sat08/08 08:45 am 433 cfs
Sat08/08 08:30 am 438 cfs
Sat08/08 08:15 am 439 cfs
Sat08/08 08:00 am 438 cfs
Sat08/08 07:45 am 436 cfs
Sat08/08 07:30 am 434 cfs
Sat08/08 07:15 am 439 cfs
Sat08/08 07:00 am 439 cfs
Sat08/08 06:45 am 436 cfs
Sat08/08 06:30 am 436 cfs

Latest Forecasts

Currently Forecasted Readings:
Sat08/08 11:00 am 426 cfs
Sat08/08 05:00 pm 409 cfs
Sat08/08 11:00 pm 397 cfs
Sun08/09 05:00 am 385 cfs
Sun08/09 11:00 am 374 cfs
Sun08/09 05:00 pm 370 cfs
Sun08/09 11:00 pm 364 cfs
Mon08/10 05:00 am 357 cfs
Mon08/10 11:00 am 350 cfs
Mon08/10 05:00 pm 347 cfs
Mon08/10 11:00 pm 344 cfs
Tue08/11 05:00 am 336 cfs
Tue08/11 11:00 am 328 cfs
Tue08/11 05:00 pm 324 cfs
Tue08/11 11:00 pm 320 cfs
Wed08/12 05:00 am 315 cfs
Wed08/12 11:00 am 310 cfs
Wed08/12 05:00 pm 305 cfs
Wed08/12 11:00 pm 303 cfs
Thu08/13 05:00 am 299 cfs
Thu08/13 11:00 am 295 cfs
Thu08/13 05:00 pm 292 cfs
Thu08/13 11:00 pm 296 cfs
Fri08/14 05:00 am 290 cfs
Fri08/14 11:00 am 288 cfs
Fri08/14 05:00 pm 286 cfs
Fri08/14 11:00 pm 286 cfs
Sat08/15 05:00 am 283 cfs
Sat08/15 11:00 am 282 cfs
Sat08/15 05:00 pm 280 cfs
Sat08/15 11:00 pm 282 cfs
Sun08/16 05:00 am 337 cfs
Sun08/16 11:00 am 333 cfs
Sun08/16 05:00 pm 403 cfs
Sun08/16 11:00 pm 700 cfs
Mon08/17 05:00 am 853 cfs
Mon08/17 11:00 am 793 cfs
Mon08/17 05:00 pm 860 cfs
Mon08/17 11:00 pm 727 cfs
Tue08/18 05:00 am 564 cfs

Snoqualmie River flood gauge data supplied by the
National Weather Service Northwest River Forecast Center.

Sign up for Floodzilla alerts.